Friday, August 1, 2014, 3:45 AM EDT

KIPT, Williamsport-lycoming County

Location: Montoursville, PA, United States Lat: 41.25
Local Time: 3:45 AM EDT ( 7:45 GMT) Lon: -76.917
Time Zone: US/Eastern Elev: 528 ft

Show me the last for .
Show Decoded

2014-08-01 03:30 METAR KIPT 010730Z AUTO 34003KT 3SM BR OVC003 17/16 A3014 RMK AO2 T01720161 =
2014-08-01 02:54 METAR KIPT 010654Z AUTO 34003KT 4SM BR OVC004 17/16 A3014 RMK AO2 SLP202
                 T01720161 =
2014-08-01 02:44 METAR KIPT 010644Z AUTO 00000KT 5SM BR OVC004 18/16 A3013 RMK AO2 T01780161 =
2014-08-01 02:20 METAR KIPT 010620Z AUTO 00000KT 5SM BR BKN005 18/17 A3013 RMK AO2 T01780167 =
2014-08-01 02:11 METAR KIPT 010611Z AUTO 00000KT 5SM BR SCT005 18/16 A3013 RMK AO2 T01780161 =
2014-08-01 01:54 METAR KIPT 010554Z AUTO 00000KT 6SM BR CLR 18/17 A3013 RMK AO2 SLP202 60003
                 T01830167 10233 20183 53007 =
2014-08-01 00:54 METAR KIPT 010454Z AUTO 00000KT 6SM BR FEW048 SCT070 BKN120 19/17 A3013 RMK AO2
                 RAB23E42 SLP199 P0003 T01890172 402610156 =
2014-07-31 23:54 METAR KIPT 010354Z AUTO 33003KT 9SM SCT055 BKN100 BKN120 19/17 A3012 RMK AO2
                 SLP196 T01940172 =
2014-07-31 22:54 METAR KIPT 010254Z AUTO 02004KT 8SM FEW070 FEW120 19/17 A3011 =
2014-07-31 21:54 METAR KIPT 010154Z 00000KT 10SM FEW120 22/17 A3011 RMK AO2 SLP193 T02170167 =
2014-07-31 20:54 METAR KIPT 010054Z 32003KT 10SM SCT060 OVC110 23/18 A3009 RMK AO2 SLP187
                 T02280178 =
2014-07-31 19:54 METAR KIPT 312354Z 00000KT 10SM FEW060 FEW110 23/17 A3008 =
2014-07-31 18:54 METAR KIPT 312254Z 18005KT 10SM CLR 25/16 A3007 RMK AO2 SLP181 T02500161 =
2014-07-31 17:54 METAR KIPT 312154Z 18005KT 10SM CLR 26/17 A3006 RMK AO2 SLP178 T02560167 =
2014-07-31 16:54 METAR KIPT 312054Z VRB03KT 10SM SCT045 BKN055 BKN070 25/17 A3006 RMK AO2 SLP178
                 T02500167 56009 =
2014-07-31 15:54 METAR KIPT 311954Z 12005KT 10SM FEW050 23/17 A3007 RMK AO2 SLP180 FEW MDT CU
                 T02330167 =
2014-07-31 14:54 METAR KIPT 311854Z 11007KT 10SM FEW050 23/17 A3008 RMK AO2 SLP183 FEW MDT CU
                 T02330167 =
2014-07-31 13:54 METAR KIPT 311754Z 00000KT 10SM SCT100 22/16 A3009 =
2014-07-31 13:36 METAR KIPT 311736Z 00000KT 10SM SCT021 SCT045 BKN100 21/16 A3010 RMK AO2
                 T02110156 =
2014-07-31 12:54 METAR KIPT 311654Z 14004KT 10SM OVC017 20/15 A3010 RMK AO2 SLP191 T02000150 =
2014-07-31 11:54 METAR KIPT 311554Z 13007KT 9SM OVC015 19/15 A3010 RMK AO2 SLP191 T01890150 =
2014-07-31 11:43 METAR KIPT 311543Z 13006KT 10SM OVC015 19/15 A3010 RMK AO2 T01890150 =
2014-07-31 10:54 METAR KIPT 311454Z 20004KT 7SM OVC012 18/14 A3009 RMK AO2 SLP189 T01780144 53006
                 =
2014-07-31 10:08 METAR KIPT 311408Z 13003KT 7SM OVC011 18/14 A3008 RMK AO2 T01780144 =
2014-07-31 09:54 METAR KIPT 311354Z 00000KT 5SM HZ OVC009 17/14 A3008 RMK AO2 SLP185 T01720144 =
2014-07-31 08:54 METAR KIPT 311254Z 00000KT 4SM HZ OVC008 17/14 A3008 RMK AO2 SLP186 T01670139 =
2014-07-31 07:54 METAR KIPT 311154Z 00000KT 4SM BR OVC006 16/14 A3007 RMK AO2 SLP183 70022
                 T01610139 10161 20156 53009 =
2014-07-31 06:54 METAR KIPT 311054Z 10005KT 3SM BR OVC006 16/14 A3006 RMK AO2 SLP178 T01610139 =
2014-07-31 05:54 METAR KIPT 310954Z AUTO 00000KT 9SM OVC007 16/14 A3006 RMK AO2 SLP176 T01560139
                 =
2014-07-31 04:54 METAR KIPT 310854Z AUTO 00000KT 10SM OVC008 16/14 A3005 RMK AO2 SLP172 T01560139
                 51002 =
2014-07-31 03:54 METAR KIPT 310754Z AUTO 00000KT 9SM OVC007 16/14 A3005 =

Support USWX by starting your Amazon purchase here.